Time;durP1;ratioP1;P1;durP2;ratioP2;P2;SDS_P1;SDS_P2;PMS_P1;PMS_P2;Temp;Humidity;BMP_temperature;BMP_pressure;BME280_temperature;BME280_humidity;BME280_pressure;Samples;Min_cycle;Max_cycle;Signal;HPM_P1;HPM_P2
2023/06/05 00:01:01;;;;;;;4.72;3.03;;;11.70;99.90;;;;;;5053309;28;20044;-59
2023/06/05 00:03:30;;;;;;;6.85;3.42;;;11.70;99.90;;;;;;5071911;28;20139;-59
2023/06/05 00:05:57;;;;;;;7.22;3.53;;;11.70;99.90;;;;;;5053348;28;20052;-57
2023/06/05 00:08:24;;;;;;;8.60;3.63;;;11.70;99.90;;;;;;5053589;28;20052;-59
2023/06/05 00:10:51;;;;;;;5.88;4.03;;;11.70;99.90;;;;;;5056883;28;20055;-57
2023/06/05 00:13:17;;;;;;;5.25;3.60;;;11.80;99.90;;;;;;5057481;28;20735;-58
2023/06/05 00:15:45;;;;;;;4.80;3.38;;;12.50;99.90;;;;;;5058064;28;20051;-58
2023/06/05 00:18:12;;;;;;;5.38;3.38;;;12.00;99.90;;;;;;5075712;28;20076;-58
2023/06/05 00:20:40;;;;;;;5.85;3.20;;;11.70;99.90;;;;;;5057042;28;20090;-58
2023/06/05 00:23:11;;;;;;;5.93;3.95;;;11.70;99.90;;;;;;5055619;28;20052;-57
2023/06/05 00:25:38;;;;;;;6.38;3.30;;;11.80;99.90;;;;;;5057398;28;20086;-59
2023/06/05 00:28:05;;;;;;;6.13;3.60;;;11.90;99.90;;;;;;5057120;28;20484;-58
2023/06/05 00:30:31;;;;;;;5.50;3.55;;;11.90;99.90;;;;;;5057594;28;20063;-57
2023/06/05 00:32:58;;;;;;;5.32;3.63;;;12.00;99.90;;;;;;5075282;28;20569;-59
2023/06/05 00:35:25;;;;;;;5.85;3.92;;;12.00;99.90;;;;;;5074611;28;20048;-56
2023/06/05 00:37:54;;;;;;;10.38;3.33;;;12.10;99.90;;;;;;5057515;28;20044;-57
2023/06/05 00:40:20;;;;;;;4.97;3.30;;;12.30;99.90;;;;;;5073332;28;20052;-58
2023/06/05 00:42:47;;;;;;;5.00;3.28;;;12.10;99.90;;;;;;5074680;28;20070;-58
2023/06/05 00:45:14;;;;;;;7.68;3.42;;;12.30;99.90;;;;;;5055243;28;20174;-57
2023/06/05 00:47:42;;;;;;;6.40;2.92;;;12.20;99.90;;;;;;5056867;28;20059;-58
2023/06/05 00:50:11;;;;;;;6.32;3.70;;;12.20;99.90;;;;;;5054743;28;20114;-58
2023/06/05 00:52:38;;;;;;;4.68;3.28;;;12.70;99.90;;;;;;5056969;28;20045;-58
2023/06/05 00:55:08;;;;;;;7.22;3.88;;;13.00;99.90;;;;;;5057292;28;20113;-58
2023/06/05 00:57:35;;;;;;;5.07;3.38;;;12.30;99.90;;;;;;5075014;28;20044;-58
2023/06/05 01:00:06;;;;;;;6.50;3.90;;;12.30;99.90;;;;;;5075184;28;20450;-57
2023/06/05 01:02:35;;;;;;;8.70;4.18;;;12.30;99.90;;;;;;5074479;28;20124;-58
2023/06/05 01:05:03;;;;;;;6.80;3.60;;;12.30;99.90;;;;;;5056981;28;20472;-58
2023/06/05 01:07:32;;;;;;;5.93;3.90;;;12.30;99.90;;;;;;5056905;28;20060;-58
2023/06/05 01:10:00;;;;;;;6.45;4.15;;;12.30;99.90;;;;;;5074077;28;20500;-59
2023/06/05 01:12:34;;;;;;;10.18;4.80;;;12.40;99.90;;;;;;5056764;28;20053;-58
2023/06/05 01:15:05;;;;;;;9.05;4.82;;;12.40;99.90;;;;;;5056856;28;20063;-58
2023/06/05 01:17:33;;;;;;;10.45;4.40;;;12.40;99.90;;;;;;5074307;28;20048;-59
2023/06/05 01:20:09;;;;;;;7.65;4.63;;;12.30;99.90;;;;;;5056504;28;20062;-59
2023/06/05 01:22:37;;;;;;;6.45;4.53;;;12.30;99.90;;;;;;5056828;28;20056;-58
2023/06/05 01:25:07;;;;;;;8.50;4.53;;;12.40;99.90;;;;;;5074092;28;20124;-59
2023/06/05 01:27:48;;;;;;;6.05;3.92;;;12.40;99.90;;;;;;5056651;28;20091;-60
2023/06/05 01:30:24;;;;;;;6.72;4.50;;;12.40;99.90;;;;;;5055495;28;20046;-58
2023/06/05 01:32:56;;;;;;;6.15;4.20;;;12.30;99.90;;;;;;5056083;28;20053;-57
2023/06/05 01:35:27;;;;;;;9.48;4.93;;;12.40;99.90;;;;;;5056446;28;20102;-57
2023/06/05 01:37:55;;;;;;;9.90;4.53;;;12.40;99.90;;;;;;5055842;28;20447;-57
2023/06/05 01:40:25;;;;;;;11.73;4.25;;;12.60;99.90;;;;;;5054144;28;20496;-58
2023/06/05 01:42:55;;;;;;;6.47;4.25;;;12.40;99.90;;;;;;5056178;28;20099;-58
2023/06/05 01:45:22;;;;;;;7.00;4.43;;;12.30;99.90;;;;;;5073824;28;20123;-58
2023/06/05 01:47:51;;;;;;;6.72;4.63;;;12.30;99.90;;;;;;5056096;28;20056;-58
2023/06/05 01:50:18;;;;;;;11.07;4.90;;;12.30;99.90;;;;;;5056153;28;20060;-58
2023/06/05 01:52:46;;;;;;;6.57;4.40;;;12.30;99.90;;;;;;5055281;28;20048;-57
2023/06/05 01:55:16;;;;;;;8.20;4.68;;;12.30;99.90;;;;;;5074029;28;20084;-59
2023/06/05 01:57:44;;;;;;;5.93;4.47;;;12.20;99.90;;;;;;5056118;28;20132;-57
2023/06/05 02:00:15;;;;;;;8.52;4.50;;;12.20;99.90;;;;;;5073102;28;20048;-58
2023/06/05 02:02:42;;;;;;;8.45;4.60;;;12.20;99.90;;;;;;5073985;28;20047;-58
2023/06/05 02:05:10;;;;;;;7.03;4.78;;;12.10;99.90;;;;;;5074027;28;20044;-58
2023/06/05 02:07:39;;;;;;;7.40;4.30;;;12.20;99.90;;;;;;5055219;28;20048;-58
2023/06/05 02:10:08;;;;;;;7.07;4.82;;;12.70;99.90;;;;;;5055433;28;20123;-58
2023/06/05 02:12:37;;;;;;;7.45;4.68;;;12.20;99.90;;;;;;5054999;28;20102;-58
2023/06/05 02:15:06;;;;;;;8.18;4.88;;;12.20;99.90;;;;;;5055678;28;20040;-58
2023/06/05 02:17:34;;;;;;;7.68;4.57;;;12.20;99.90;;;;;;5055433;28;20048;-57
2023/06/05 02:20:01;;;;;;;7.35;4.78;;;12.30;99.90;;;;;;5052971;28;20125;-57
2023/06/05 02:22:28;;;;;;;7.45;5.32;;;12.20;99.90;;;;;;5055328;28;20060;-58
2023/06/05 02:24:55;;;;;;;6.65;4.55;;;12.20;99.90;;;;;;5073485;28;20040;-58
2023/06/05 02:27:24;;;;;;;9.50;5.03;;;12.30;99.90;;;;;;5072508;28;20480;-59
2023/06/05 02:29:51;;;;;;;8.98;5.22;;;12.30;99.90;;;;;;5055213;28;20106;-58
2023/06/05 02:32:19;;;;;;;8.98;5.55;;;12.30;99.90;;;;;;5052390;28;20537;-59
2023/06/05 02:34:47;;;;;;;6.38;4.35;;;12.30;99.90;;;;;;5072639;28;20083;-58
2023/06/05 02:37:14;;;;;;;7.25;4.70;;;12.30;99.90;;;;;;5055201;28;20475;-58
2023/06/05 02:39:41;;;;;;;7.60;4.43;;;12.30;99.90;;;;;;5055267;28;20133;-58
2023/06/05 02:42:09;;;;;;;7.00;4.55;;;12.40;99.90;;;;;;5054472;28;20447;-58
2023/06/05 02:44:36;;;;;;;6.03;4.57;;;12.40;99.90;;;;;;5055042;28;20079;-58
2023/06/05 02:47:02;;;;;;;7.40;4.90;;;12.40;99.90;;;;;;5054861;28;20101;-58
2023/06/05 02:49:32;;;;;;;6.38;4.25;;;12.40;99.90;;;;;;5071958;28;20488;-58
2023/06/05 02:51:59;;;;;;;6.82;4.85;;;12.40;99.90;;;;;;5055030;28;20055;-58
2023/06/05 02:54:28;;;;;;;7.70;5.00;;;12.40;99.90;;;;;;5070625;28;20049;-58
2023/06/05 02:56:56;;;;;;;8.93;4.68;;;12.40;99.90;;;;;;5072000;28;20124;-59
2023/06/05 02:59:24;;;;;;;9.13;4.60;;;12.40;99.90;;;;;;5052898;28;20048;-58
2023/06/05 03:01:52;;;;;;;6.03;4.70;;;12.50;99.90;;;;;;5053875;28;20057;-58
2023/06/05 03:04:20;;;;;;;7.13;5.22;;;12.40;99.90;;;;;;5054715;28;20135;-58
2023/06/05 03:06:50;;;;;;;7.05;4.72;;;12.40;99.90;;;;;;5054297;28;20082;-58
2023/06/05 03:09:17;;;;;;;10.55;5.65;;;12.40;99.90;;;;;;5071366;28;20040;-58
2023/06/05 03:11:44;;;;;;;7.20;4.72;;;12.40;99.90;;;;;;5072591;28;20044;-57
2023/06/05 03:14:12;;;;;;;6.80;5.30;;;12.40;99.90;;;;;;5072178;28;20067;-58
2023/06/05 03:16:41;;;;;;;9.10;4.85;;;12.40;99.90;;;;;;5053356;28;20076;-58
2023/06/05 03:19:08;;;;;;;7.13;4.82;;;12.40;99.90;;;;;;5069851;28;20121;-58
2023/06/05 03:21:37;;;;;;;5.90;4.40;;;12.40;99.90;;;;;;5054210;28;20516;-59
2023/06/05 03:24:07;;;;;;;6.53;4.28;;;12.40;99.90;;;;;;5051365;28;20094;-59
2023/06/05 03:26:35;;;;;;;7.10;4.32;;;12.50;99.90;;;;;;5054349;28;20063;-58
2023/06/05 03:29:02;;;;;;;5.53;3.92;;;12.40;99.90;;;;;;5054092;28;20058;-57
2023/06/05 03:31:28;;;;;;;7.78;5.20;;;12.40;99.90;;;;;;5071628;28;20051;-58
2023/06/05 03:33:55;;;;;;;9.98;4.53;;;12.40;99.90;;;;;;5054068;28;20074;-59
2023/06/05 03:36:22;;;;;;;6.55;3.92;;;12.50;99.90;;;;;;5054194;28;20052;-58
2023/06/05 03:38:49;;;;;;;8.25;4.40;;;12.40;99.90;;;;;;5071746;28;20115;-58
2023/06/05 03:41:18;;;;;;;7.47;4.45;;;12.40;99.90;;;;;;5072180;28;20052;-57
2023/06/05 03:43:45;;;;;;;9.13;4.57;;;13.10;99.90;;;;;;5072124;28;20147;-58
2023/06/05 03:46:18;;;;;;;6.00;4.53;;;12.50;99.90;;;;;;5053534;28;20060;-59
2023/06/05 03:48:45;;;;;;;9.45;4.72;;;12.40;99.90;;;;;;5071897;28;20055;-57
2023/06/05 03:51:13;;;;;;;6.45;4.13;;;13.10;99.90;;;;;;5053554;28;20066;-58
2023/06/05 03:53:43;;;;;;;9.25;4.55;;;12.40;99.90;;;;;;5070166;28;20106;-58
2023/06/05 03:56:10;;;;;;;6.18;4.00;;;12.40;99.90;;;;;;5071926;28;20048;-58
2023/06/05 03:58:39;;;;;;;8.13;4.15;;;13.10;99.90;;;;;;5053516;28;20052;-58
2023/06/05 04:01:06;;;;;;;6.68;4.35;;;12.40;99.90;;;;;;5070058;28;20048;-58
2023/06/05 04:03:37;;;;;;;10.27;3.95;;;12.40;99.90;;;;;;5071647;28;20139;-58
2023/06/05 04:06:04;;;;;;;7.05;4.32;;;12.50;99.90;;;;;;5053504;28;20101;-58
2023/06/05 04:08:32;;;;;;;6.70;4.68;;;12.50;99.90;;;;;;5050381;28;20049;-58
2023/06/05 04:10:59;;;;;;;6.00;4.10;;;12.50;99.90;;;;;;5050579;28;20049;-58
2023/06/05 04:13:26;;;;;;;6.60;4.00;;;12.50;99.90;;;;;;5051098;28;20053;-58
2023/06/05 04:15:54;;;;;;;8.05;4.70;;;12.60;99.90;;;;;;5050579;28;20099;-59
2023/06/05 04:18:22;;;;;;;8.88;4.00;;;12.60;99.90;;;;;;5051572;28;20063;-58
2023/06/05 04:20:49;;;;;;;6.22;4.20;;;12.60;99.90;;;;;;5050141;28;20131;-58
2023/06/05 04:23:16;;;;;;;8.60;4.43;;;12.60;99.90;;;;;;5048412;28;20053;-58
2023/06/05 04:25:45;;;;;;;4.82;3.88;;;12.60;99.90;;;;;;5050596;28;20057;-59
2023/06/05 04:28:12;;;;;;;7.72;3.72;;;12.60;99.90;;;;;;5050105;28;20056;-57
2023/06/05 04:30:39;;;;;;;5.80;3.80;;;12.70;99.90;;;;;;5050132;28;20408;-57
2023/06/05 04:33:07;;;;;;;5.68;3.38;;;12.70;99.90;;;;;;5051831;28;20111;-58
2023/06/05 04:35:34;;;;;;;5.22;3.03;;;12.80;99.90;;;;;;5047661;28;20053;-59
2023/06/05 04:38:01;;;;;;;4.20;2.80;;;12.80;99.90;;;;;;5051558;28;20502;-58
2023/06/05 04:40:28;;;;;;;4.30;2.45;;;12.90;99.90;;;;;;5047731;28;20053;-58
2023/06/05 04:42:56;;;;;;;4.30;2.58;;;12.90;99.90;;;;;;5051304;28;20076;-59
2023/06/05 04:45:24;;;;;;;3.72;2.45;;;13.00;99.90;;;;;;5050315;28;20060;-58
2023/06/05 04:47:51;;;;;;;6.53;3.05;;;13.00;99.90;;;;;;5049361;28;20048;-58
2023/06/05 04:50:29;;;;;;;5.03;2.83;;;13.10;99.90;;;;;;5051102;28;20514;-61
2023/06/05 04:52:56;;;;;;;4.03;2.50;;;13.10;99.90;;;;;;5051582;28;20053;-58
2023/06/05 04:55:23;;;;;;;3.53;2.58;;;13.20;99.90;;;;;;5050513;28;20056;-58
2023/06/05 04:57:51;;;;;;;5.07;2.72;;;13.20;99.90;;;;;;5053618;28;20122;-58
2023/06/05 05:00:18;;;;;;;3.95;2.65;;;13.20;99.90;;;;;;5047895;28;20108;-59
2023/06/05 05:02:46;;;;;;;5.00;2.38;;;13.30;99.90;;;;;;5048938;28;20053;-58
2023/06/05 05:05:15;;;;;;;4.65;2.33;;;13.40;99.90;;;;;;5049097;28;20057;-59
2023/06/05 05:07:43;;;;;;;5.43;2.65;;;13.50;99.90;;;;;;5052523;28;20063;-59
2023/06/05 05:10:11;;;;;;;4.47;2.50;;;13.70;99.90;;;;;;5051869;28;20048;-58
2023/06/05 05:12:38;;;;;;;5.03;2.50;;;13.80;99.90;;;;;;5072387;28;20049;-58
2023/06/05 05:15:06;;;;;;;4.78;2.28;;;13.90;99.90;;;;;;5072662;28;20051;-59
2023/06/05 05:17:33;;;;;;;2.90;1.85;;;13.90;99.90;;;;;;5055626;28;20064;-58
2023/06/05 05:20:00;;;;;;;5.38;2.53;;;14.00;99.90;;;;;;5054254;28;20488;-61
2023/06/05 05:22:27;;;;;;;10.18;2.35;;;14.10;99.90;;;;;;5073594;28;20048;-61
2023/06/05 05:24:55;;;;;;;4.30;2.00;;;14.10;99.90;;;;;;5054088;28;20080;-61
2023/06/05 05:27:24;;;;;;;4.00;2.13;;;14.30;99.90;;;;;;5073569;28;20055;-58
2023/06/05 05:29:51;;;;;;;3.97;2.03;;;14.30;99.90;;;;;;5071046;28;20523;-58
2023/06/05 05:32:18;;;;;;;2.72;1.90;;;14.10;99.90;;;;;;5053924;28;20064;-58
2023/06/05 05:34:45;;;;;;;3.72;2.25;;;14.30;99.90;;;;;;5053581;28;20055;-59
2023/06/05 05:37:13;;;;;;;2.85;1.95;;;14.30;99.90;;;;;;5054230;28;20489;-59
2023/06/05 05:39:40;;;;;;;3.13;1.95;;;14.40;99.90;;;;;;5052769;28;20049;-59
2023/06/05 05:42:08;;;;;;;4.50;1.92;;;14.40;99.90;;;;;;5071836;28;20064;-59
2023/06/05 05:44:36;;;;;;;2.70;1.70;;;14.60;99.90;;;;;;5053222;28;20044;-59
2023/06/05 05:47:03;;;;;;;3.13;2.05;;;14.70;99.90;;;;;;5053369;28;21022;-58
2023/06/05 05:49:30;;;;;;;3.92;1.88;;;14.70;99.90;;;;;;5072995;28;20048;-59
2023/06/05 05:51:57;;;;;;;5.30;2.35;;;14.80;99.90;;;;;;5049064;28;20114;-58
2023/06/05 05:54:26;;;;;;;3.47;1.95;;;14.90;99.90;;;;;;5054043;28;20455;-58
2023/06/05 05:56:53;;;;;;;3.85;2.10;;;15.10;99.90;;;;;;5070535;28;20504;-59
2023/06/05 05:59:22;;;;;;;3.47;1.80;;;15.30;99.90;;;;;;5052224;28;20059;-59
2023/06/05 06:01:49;;;;;;;6.70;2.08;;;15.60;99.90;;;;;;5053466;28;20053;-59
2023/06/05 06:04:17;;;;;;;3.95;2.10;;;15.60;99.90;;;;;;5055351;28;20141;-59
2023/06/05 06:06:47;;;;;;;3.47;1.77;;;15.70;99.90;;;;;;5047487;28;20048;-58
2023/06/05 06:09:16;;;;;;;2.97;2.00;;;15.70;99.90;;;;;;5049335;28;20103;-59
2023/06/05 06:11:44;;;;;;;2.80;1.80;;;15.80;99.90;;;;;;5049443;28;20506;-61
2023/06/05 06:14:11;;;;;;;2.75;2.05;;;16.00;99.90;;;;;;5051604;28;20481;-59
2023/06/05 06:16:40;;;;;;;5.80;2.20;;;16.30;99.90;;;;;;5051475;28;20049;-58
2023/06/05 06:19:08;;;;;;;3.95;1.90;;;16.20;99.90;;;;;;5051926;28;20496;-58
2023/06/05 06:21:35;;;;;;;3.47;1.70;;;16.50;99.90;;;;;;5049148;28;20523;-59
2023/06/05 06:24:02;;;;;;;5.43;2.58;;;16.80;99.90;;;;;;5047883;28;20049;-59
2023/06/05 06:26:30;;;;;;;2.20;1.45;;;17.60;99.90;;;;;;5047345;28;20052;-59
2023/06/05 06:28:59;;;;;;;3.25;1.83;;;17.50;99.90;;;;;;5047447;28;20053;-59
2023/06/05 06:31:26;;;;;;;3.42;1.80;;;17.70;99.90;;;;;;5051070;28;20132;-59
2023/06/05 06:33:54;;;;;;;3.35;1.83;;;17.70;99.90;;;;;;5050300;28;20060;-59
2023/06/05 06:36:22;;;;;;;3.65;1.83;;;17.80;99.90;;;;;;5051182;28;20185;-59
2023/06/05 06:38:49;;;;;;;3.53;2.28;;;17.90;99.90;;;;;;5052250;28;20053;-58
2023/06/05 06:41:16;;;;;;;6.07;1.77;;;18.10;99.90;;;;;;5049340;28;20045;-59
2023/06/05 06:43:43;;;;;;;3.53;1.52;;;18.20;99.90;;;;;;5053460;28;20084;-59
2023/06/05 06:46:10;;;;;;;3.70;1.98;;;18.30;99.90;;;;;;5049651;28;20134;-60
2023/06/05 06:48:37;;;;;;;4.40;1.98;;;18.40;99.90;;;;;;5050074;28;20053;-60
2023/06/05 06:51:05;;;;;;;3.80;2.20;;;18.50;99.90;;;;;;5051167;28;20049;-59
2023/06/05 06:53:32;;;;;;;3.47;2.08;;;18.50;99.90;;;;;;5051274;28;20076;-60
2023/06/05 06:55:59;;;;;;;5.80;2.03;;;18.60;99.90;;;;;;5051124;28;20049;-59
2023/06/05 06:58:26;;;;;;;3.33;2.42;;;18.70;99.90;;;;;;5051772;28;20056;-59
2023/06/05 07:00:53;;;;;;;4.53;2.55;;;18.60;99.90;;;;;;5052601;28;20481;-59
2023/06/05 07:03:20;;;;;;;3.22;2.00;;;18.40;99.90;;;;;;5052418;28;20057;-58
2023/06/05 07:05:47;;;;;;;6.85;2.25;;;18.20;99.90;;;;;;5052773;28;20041;-58
2023/06/05 07:08:16;;;;;;;4.22;1.80;;;18.20;99.90;;;;;;5053140;28;20049;-59
2023/06/05 07:10:43;;;;;;;4.35;2.03;;;18.10;99.90;;;;;;5054396;28;20052;-59
2023/06/05 07:13:10;;;;;;;2.92;1.95;;;18.00;99.90;;;;;;5070416;28;20052;-59
2023/06/05 07:15:37;;;;;;;3.08;1.92;;;18.00;99.90;;;;;;5054033;28;20056;-59
2023/06/05 07:18:04;;;;;;;4.18;2.20;;;18.20;99.90;;;;;;5072345;28;20049;-59
2023/06/05 07:20:31;;;;;;;3.05;1.92;;;18.30;99.90;;;;;;5054466;28;20075;-58
2023/06/05 07:22:59;;;;;;;4.68;2.00;;;18.30;99.90;;;;;;5054048;28;20131;-59
2023/06/05 07:25:28;;;;;;;5.13;2.05;;;18.50;99.90;;;;;;5054374;28;20137;-59
2023/06/05 07:27:55;;;;;;;4.68;2.15;;;18.70;99.90;;;;;;5054473;28;20135;-59
2023/06/05 07:30:22;;;;;;;2.80;2.00;;;19.40;99.90;;;;;;5071849;28;20048;-59
2023/06/05 07:32:49;;;;;;;3.05;2.22;;;19.90;99.90;;;;;;5072129;28;20056;-59
2023/06/05 07:35:16;;;;;;;3.63;2.40;;;20.40;99.90;;;;;;5054401;28;20048;-60
2023/06/05 07:37:43;;;;;;;3.08;1.80;;;20.70;99.40;;;;;;5053420;28;20056;-60
2023/06/05 07:40:10;;;;;;;4.30;2.05;;;20.60;98.80;;;;;;5054350;28;20495;-59
2023/06/05 07:42:38;;;;;;;3.55;2.20;;;20.30;98.80;;;;;;5054197;28;20119;-59
2023/06/05 07:45:06;;;;;;;5.57;1.95;;;20.60;98.70;;;;;;5071730;28;20051;-59
2023/06/05 07:47:33;;;;;;;7.72;2.50;;;20.50;98.80;;;;;;5052126;28;20053;-59
2023/06/05 07:50:03;;;;;;;4.00;1.77;;;20.40;99.00;;;;;;5054044;28;20496;-59
2023/06/05 07:52:31;;;;;;;5.00;2.22;;;20.50;98.40;;;;;;5053418;28;20094;-59
2023/06/05 07:54:59;;;;;;;3.88;2.03;;;20.90;97.80;;;;;;5052187;28;20048;-59
2023/06/05 07:57:27;;;;;;;3.17;1.88;;;21.30;97.70;;;;;;5071506;28;20052;-59
2023/06/05 07:59:55;;;;;;;3.67;1.98;;;21.80;97.50;;;;;;5072104;28;20036;-60
2023/06/05 08:02:23;;;;;;;8.77;2.20;;;22.00;97.00;;;;;;5053776;28;20056;-58
2023/06/05 08:04:50;;;;;;;3.03;1.90;;;21.90;96.90;;;;;;5053542;28;20110;-60
2023/06/05 08:07:17;;;;;;;2.67;1.70;;;21.40;96.30;;;;;;5053931;28;20109;-60
2023/06/05 08:09:44;;;;;;;3.65;1.98;;;21.20;96.10;;;;;;5053690;28;20059;-60
2023/06/05 08:12:11;;;;;;;3.55;2.25;;;20.90;96.70;;;;;;5051073;28;20511;-60
2023/06/05 08:14:38;;;;;;;3.47;1.67;;;21.30;96.90;;;;;;5054114;28;20102;-59
2023/06/05 08:17:07;;;;;;;2.88;1.85;;;21.50;96.70;;;;;;5053999;28;20040;-59
2023/06/05 08:19:34;;;;;;;2.70;1.73;;;21.50;96.60;;;;;;5053323;28;20056;-59
2023/06/05 08:22:00;;;;;;;3.78;1.85;;;21.90;96.20;;;;;;5053879;28;20056;-59
2023/06/05 08:24:28;;;;;;;3.58;1.83;;;22.00;95.90;;;;;;5071619;28;20551;-60
2023/06/05 08:26:55;;;;;;;2.80;1.63;;;22.30;95.70;;;;;;5071002;28;20385;-60
2023/06/05 08:29:22;;;;;;;2.95;1.88;;;22.70;95.10;;;;;;5071684;28;20044;-59
2023/06/05 08:31:49;;;;;;;3.65;1.90;;;23.10;94.80;;;;;;5073784;28;20057;-60
2023/06/05 08:34:18;;;;;;;3.28;2.30;;;23.50;94.50;;;;;;5074408;28;20053;-60
2023/06/05 08:36:45;;;;;;;3.42;1.85;;;23.70;93.60;;;;;;5057340;28;20056;-61
2023/06/05 08:39:12;;;;;;;2.83;1.92;;;23.40;93.30;;;;;;5055523;28;20044;-60
2023/06/05 08:41:40;;;;;;;3.55;2.00;;;23.50;93.60;;;;;;5074661;28;20090;-60
2023/06/05 08:44:07;;;;;;;2.88;1.88;;;23.30;93.20;;;;;;5057354;28;20056;-60
2023/06/05 08:46:37;;;;;;;3.60;2.17;;;22.70;93.40;;;;;;5056447;28;20048;-61
2023/06/05 08:49:09;;;;;;;4.95;2.25;;;22.60;93.60;;;;;;5075237;28;20083;-60
2023/06/05 08:51:40;;;;;;;4.03;2.17;;;23.30;93.30;;;;;;5055108;28;20385;-60
2023/06/05 08:54:12;;;;;;;4.75;2.25;;;23.70;92.90;;;;;;5074734;28;20048;-59
2023/06/05 08:56:40;;;;;;;4.78;2.30;;;24.20;93.00;;;;;;5065129;28;20076;-60
2023/06/05 08:59:07;;;;;;;4.00;2.05;;;24.80;92.50;;;;;;5072510;28;20049;-60
2023/06/05 09:01:35;;;;;;;3.65;2.17;;;24.60;91.80;;;;;;5070346;28;20170;-59
2023/06/05 09:04:02;;;;;;;3.95;1.90;;;24.90;91.70;;;;;;5056114;28;20502;-60
2023/06/05 09:06:32;;;;;;;3.47;2.03;;;25.10;91.50;;;;;;5053090;28;20110;-59
2023/06/05 09:09:01;;;;;;;3.70;1.98;;;25.40;91.20;;;;;;5055081;28;20049;-60
2023/06/05 09:11:30;;;;;;;3.03;2.00;;;25.50;90.90;;;;;;5053790;28;20056;-62
2023/06/05 09:13:58;;;;;;;4.68;2.38;;;25.80;90.80;;;;;;5054908;28;20102;-60
2023/06/05 09:16:34;;;;;;;5.18;2.35;;;25.60;89.90;;;;;;5054543;28;20056;-59
2023/06/05 09:19:01;;;;;;;3.80;2.28;;;25.70;89.30;;;;;;5049526;28;20492;-58
2023/06/05 09:21:30;;;;;;;5.38;2.30;;;25.70;89.70;;;;;;5070241;28;20528;-60
2023/06/05 09:24:16;;;;;;;3.80;2.20;;;26.00;90.00;;;;;;5054277;28;20056;-60
2023/06/05 09:26:57;;;;;;;4.20;2.30;;;25.80;87.30;;;;;;5054420;28;20121;-60
2023/06/05 09:29:25;;;;;;;4.60;2.47;;;25.90;88.10;;;;;;5052250;28;20146;-59
2023/06/05 09:31:53;;;;;;;5.78;2.25;;;25.90;88.30;;;;;;5053003;28;20048;-60
2023/06/05 09:34:29;;;;;;;4.10;2.20;;;26.40;87.90;;;;;;5053465;28;20106;-60
2023/06/05 09:36:57;;;;;;;5.28;2.03;;;26.80;85.70;;;;;;5071628;28;20057;-60
2023/06/05 09:39:27;;;;;;;4.18;2.13;;;27.00;86.00;;;;;;5054326;28;20056;-59
2023/06/05 09:41:55;;;;;;;3.97;2.22;;;27.00;85.70;;;;;;5071893;28;20052;-59
2023/06/05 09:44:23;;;;;;;5.57;2.13;;;26.40;86.00;;;;;;5054445;28;20057;-59
2023/06/05 09:46:58;;;;;;;4.53;2.10;;;26.30;85.80;;;;;;5050698;28;20048;-60
2023/06/05 09:49:27;;;;;;;2.92;2.10;;;26.30;85.70;;;;;;5055541;28;20102;-60
2023/06/05 09:51:56;;;;;;;2.35;1.80;;;26.70;85.30;;;;;;5051974;28;20408;-60
2023/06/05 09:54:25;;;;;;;3.00;2.00;;;26.40;83.20;;;;;;5071296;28;20048;-60
2023/06/05 09:56:57;;;;;;;3.40;2.45;;;26.10;84.70;;;;;;5052022;28;20130;-59
2023/06/05 09:59:29;;;;;;;4.68;1.88;;;25.90;84.30;;;;;;5072220;28;20055;-60
2023/06/05 10:01:59;;;;;;;3.55;2.17;;;26.30;84.40;;;;;;5051848;28;20045;-59
2023/06/05 10:04:29;;;;;;;3.58;1.83;;;26.60;84.50;;;;;;5072451;28;20060;-60
2023/06/05 10:07:00;;;;;;;3.65;2.20;;;26.70;84.20;;;;;;5070851;28;20044;-59
2023/06/05 10:09:31;;;;;;;3.88;2.05;;;26.70;83.70;;;;;;5052660;28;20056;-60
2023/06/05 10:11:59;;;;;;;5.55;2.20;;;26.80;83.00;;;;;;5052574;28;20052;-60
2023/06/05 10:14:26;;;;;;;3.92;1.90;;;26.50;83.70;;;;;;5054914;28;20056;-60
2023/06/05 10:16:54;;;;;;;4.07;2.25;;;26.70;83.40;;;;;;5051940;28;20057;-61
2023/06/05 10:19:21;;;;;;;3.97;2.00;;;26.90;83.70;;;;;;5052836;28;20056;-60
2023/06/05 10:21:49;;;;;;;3.70;2.00;;;27.10;83.40;;;;;;5072125;28;20040;-60
2023/06/05 10:24:20;;;;;;;3.67;2.10;;;26.80;82.60;;;;;;5070856;28;20098;-59
2023/06/05 10:27:32;;;;;;;3.22;1.98;;;26.70;82.20;;;;;;5053139;28;20098;-60
2023/06/05 10:30:41;;;;;;;2.50;1.85;;;26.70;82.60;;;;;;5052034;28;20052;-60
2023/06/05 10:33:21;;;;;;;4.15;2.00;;;27.10;82.60;;;;;;5052330;28;20527;-60
2023/06/05 10:35:54;;;;;;;2.63;1.75;;;27.10;83.60;;;;;;5071612;28;20148;-59
2023/06/05 10:38:23;;;;;;;2.60;1.58;;;26.70;82.00;;;;;;5068569;28;20059;-60
2023/06/05 10:40:54;;;;;;;3.13;2.08;;;27.10;82.20;;;;;;5053306;28;20049;-60
2023/06/05 10:43:31;;;;;;;2.85;1.70;;;27.30;82.30;;;;;;5052043;28;20458;-60
2023/06/05 10:45:59;;;;;;;2.30;1.70;;;27.50;81.40;;;;;;5053970;28;20063;-60
2023/06/05 10:49:03;;;;;;;2.50;1.77;;;27.30;82.00;;;;;;5052444;28;20098;-60
2023/06/05 10:51:37;;;;;;;2.63;1.70;;;27.60;81.60;;;;;;5050787;28;20477;-60
2023/06/05 10:54:05;;;;;;;3.47;1.52;;;27.30;81.10;;;;;;5051665;28;20103;-60
2023/06/05 10:56:58;;;;;;;3.63;1.70;;;27.30;81.90;;;;;;5053242;28;20052;-60
2023/06/05 10:59:28;;;;;;;2.95;1.77;;;27.30;81.10;;;;;;5069840;28;20052;-60
2023/06/05 11:02:25;;;;;;;3.17;1.60;;;27.10;81.70;;;;;;5070009;28;20093;-60
2023/06/05 11:05:14;;;;;;;4.07;1.75;;;27.40;81.40;;;;;;5051647;28;20093;-60
2023/06/05 11:07:45;;;;;;;3.83;1.55;;;27.70;80.70;;;;;;5050916;28;20052;-60
2023/06/05 11:10:16;;;;;;;3.47;1.92;;;27.40;80.90;;;;;;5069789;28;20052;-60
2023/06/05 11:13:00;;;;;;;2.50;1.70;;;27.30;80.70;;;;;;5049622;28;20059;-60
2023/06/05 11:15:42;;;;;;;3.25;1.80;;;27.10;80.70;;;;;;5069221;28;20079;-60
2023/06/05 11:18:37;;;;;;;2.85;1.75;;;27.50;80.70;;;;;;5051166;28;20127;-61
2023/06/05 11:21:04;;;;;;;2.42;1.60;;;27.80;79.50;;;;;;5029551;28;20111;-60
2023/06/05 11:23:31;;;;;;;3.63;1.75;;;27.60;80.50;;;;;;5070245;28;20044;-59
2023/06/05 11:26:19;;;;;;;3.95;1.60;;;27.30;80.30;;;;;;5050174;28;20052;-60
2023/06/05 11:28:46;;;;;;;3.35;1.30;;;27.30;80.10;;;;;;5051709;28;20049;-61
2023/06/05 11:31:30;;;;;;;4.30;1.77;;;27.30;80.20;;;;;;5051582;28;20053;-60
2023/06/05 11:33:57;;;;;;;4.63;2.08;;;27.30;80.30;;;;;;5052399;28;20408;-60
2023/06/05 11:36:25;;;;;;;3.15;1.60;;;27.40;81.10;;;;;;5051361;28;20136;-60
2023/06/05 11:38:55;;;;;;;6.57;1.90;;;27.40;81.00;;;;;;5069236;28;20102;-60
2023/06/05 11:41:24;;;;;;;2.33;1.48;;;27.30;80.70;;;;;;5051968;28;20098;-59
2023/06/05 11:43:51;;;;;;;3.40;1.80;;;27.30;81.30;;;;;;5049996;28;20080;-60
2023/06/05 11:46:19;;;;;;;2.38;1.73;;;27.60;80.50;;;;;;5052798;28;20478;-60
2023/06/05 11:48:47;;;;;;;2.80;1.42;;;27.60;81.10;;;;;;5050605;28;20447;-59
2023/06/05 11:51:14;;;;;;;4.72;1.70;;;27.90;80.80;;;;;;5050311;28;20105;-59
2023/06/05 11:53:50;;;;;;;3.60;1.80;;;28.10;80.40;;;;;;5047806;28;20049;-60
2023/06/05 11:56:17;;;;;;;3.13;1.75;;;28.10;79.70;;;;;;5069134;28;20132;-60
2023/06/05 11:58:45;;;;;;;3.65;2.10;;;28.30;79.90;;;;;;5068087;28;20048;-60
2023/06/05 12:01:17;;;;;;;3.40;1.67;;;28.30;79.50;;;;;;5049360;28;20076;-60
2023/06/05 12:03:47;;;;;;;2.67;1.58;;;28.20;79.30;;;;;;5047471;28;20056;-61
2023/06/05 12:06:15;;;;;;;3.30;1.58;;;28.30;79.00;;;;;;5054591;28;20061;-61
2023/06/05 12:08:44;;;;;;;4.10;1.60;;;28.40;79.20;;;;;;5052123;28;20065;-60
2023/06/05 12:11:22;;;;;;;4.83;2.00;;;28.40;79.10;;;;;;5050349;28;20091;-59
2023/06/05 12:13:50;;;;;;;4.68;2.00;;;28.30;78.60;;;;;;5052268;28;20547;-61
2023/06/05 12:16:18;;;;;;;2.53;1.60;;;28.00;79.00;;;;;;5052776;28;20056;-60
2023/06/05 12:18:47;;;;;;;2.92;1.90;;;27.90;79.30;;;;;;5052271;28;20056;-60
2023/06/05 12:21:22;;;;;;;2.50;1.75;;;27.80;79.60;;;;;;5053871;28;20048;-61
2023/06/05 12:23:49;;;;;;;2.38;1.73;;;27.80;79.20;;;;;;5052404;28;20051;-60
2023/06/05 12:26:17;;;;;;;3.45;1.75;;;27.70;79.80;;;;;;5047566;28;20135;-60
2023/06/05 12:28:46;;;;;;;4.05;2.10;;;28.00;80.20;;;;;;5052686;28;20559;-60
2023/06/05 12:31:35;;;;;;;3.53;2.08;;;28.00;79.40;;;;;;5050915;28;20059;-59
2023/06/05 12:34:04;;;;;;;;;;;27.70;78.60;;;;;;5053289;28;20575;-59
2023/06/05 12:36:32;;;;;;;2.53;1.70;;;26.80;79.50;;;;;;5051985;28;20003;-59
2023/06/05 12:39:05;;;;;;;3.70;2.30;;;26.90;80.80;;;;;;5050708;28;20060;-60
2023/06/05 12:41:33;;;;;;;3.40;2.40;;;27.40;80.00;;;;;;5050314;28;20041;-60
2023/06/05 12:44:00;;;;;;;3.70;2.15;;;27.50;80.10;;;;;;5051245;28;20087;-59
2023/06/05 12:46:27;;;;;;;4.25;2.20;;;27.50;80.20;;;;;;5051485;28;20496;-59
2023/06/05 12:48:55;;;;;;;3.40;2.13;;;27.10;79.60;;;;;;5052167;28;20467;-60
2023/06/05 12:51:23;;;;;;;5.00;2.55;;;27.20;80.50;;;;;;5052608;28;20562;-60
2023/06/05 12:53:50;;;;;;;4.18;2.80;;;27.20;80.40;;;;;;5050853;28;20103;-60
2023/06/05 12:56:17;;;;;;;4.63;2.90;;;27.30;80.30;;;;;;5050212;28;20064;-58
2023/06/05 12:58:44;;;;;;;3.78;2.53;;;27.40;80.10;;;;;;5051432;28;20044;-59